Brockway Township, Michigan
Current Conditions -  °F | °C
As of 11:16 PM on Wednesday 26 Nov 2014 (Local Time) from KPHN Reporting Station
Overcast Overcast  
Wind Chill: 30°   Ceiling: 4900
Heat Index: 30°   Visibility: 10mi
Dew Point: 27°   Wind: 3mph
Humidity: 86%   Direction: 320°NW
Pressure: 30.08"   Gusts: NA
Location:  43.127°N, 82.8328°W
Report Text: KPHN 270416Z AUTO 32003KT 10SM OVC049 M01/M03 A3008 RMK AO2
Loading
Personal Weather Stations






























Interactive Weather Map New forecast layout! Learn more

10-Day Weather Forecast

Advertisements
Track Severe Weather on mobile